Date,TemperatureHighF,TemperatureAvgF,TemperatureLowF,DewpointHighF,DewpointAvgF,DewpointLowF,HumidityHigh,HumidityAvg,HumidityLow,PressureMaxIn,PressureMinIn,WindSpeedMaxMPH,WindSpeedAvgMPH,GustSpeedMaxMPH,PrecipitationSumIn
2013-9-1,58.1,54.8,51.8,55.4,50.5,46.2,96,85,77,30.24,30.09,14,8,27,0.05
2013-9-2,66.0,60.7,56.5,61.0,57.9,55.4,97,91,80,30.24,30.07,13,8,22,0.04
2013-9-3,68.7,61.5,57.9,62.5,56.7,51.3,97,85,64,30.24,30.18,13,5,23,0.04
2013-9-4,67.5,59.8,53.1,57.8,51.7,47.1,94,76,56,30.18,29.89,9,3,15,0.00
2013-9-5,63.3,55.8,45.1,50.1,45.4,37.5,84,69,50,29.92,29.86,6,2,12,0.00
2013-9-6,57.4,49.4,42.6,47.4,43.6,37.1,94,81,65,29.92,29.86,7,2,12,0.58
2013-9-7,62.4,52.1,46.4,57.9,47.1,42.9,97,84,67,29.89,29.71,10,4,15,0.33
2013-9-8,61.3,52.3,44.8,49.9,45.1,41.1,88,77,63,29.95,29.89,7,3,10,0.00
2013-9-9,62.2,52.7,47.7,51.9,47.6,44.7,91,83,60,30.15,29.92,8,1,16,0.04
2013-9-10,64.8,55.2,47.1,52.2,46.3,43.0,86,73,53,30.21,30.15,6,2,10,0.00
2013-9-11,60.3,54.9,49.8,57.3,52.2,45.5,95,91,82,30.21,30.07,6,2,8,0.42
2013-9-12,63.7,57.7,51.8,59.3,55.4,50.4,96,92,81,30.07,29.86,8,4,13,0.29
2013-9-13,52.2,50.0,47.7,50.5,48.4,46.6,96,94,90,30.09,29.95,4,1,8,0.12
2013-9-14,60.1,50.8,42.1,52.8,45.9,41.5,98,84,64,30.07,29.89,6,2,9,0.04
2013-9-15,56.7,49.4,40.6,56.1,46.6,39.0,98,90,75,29.89,29.18,15,8,27,0.96
2013-9-16,54.0,46.0,39.2,48.8,42.9,38.2,97,89,75,29.33,29.24,10,6,19,0.04
2013-9-17,54.7,48.2,43.3,48.7,43.3,39.9,90,83,72,29.39,29.27,10,5,15,0.00
2013-9-18,56.3,47.6,39.9,50.0,43.1,38.3,96,85,69,29.71,29.39,9,4,14,0.00
2013-9-19,51.6,48.0,43.7,50.2,46.5,41.0,97,95,90,29.74,29.47,6,1,10,0.45
2013-9-20,57.9,50.6,43.7,49.6,46.8,42.9,98,87,70,30.01,29.74,9,3,15,0.00
2013-9-21,61.7,55.4,47.5,59.2,52.9,45.3,96,91,85,30.09,30.01,9,3,14,0.00
2013-9-22,66.0,60.4,54.0,60.5,57.2,52.1,96,90,76,30.27,30.09,12,5,17,0.05
2013-9-23,64.4,58.3,51.8,60.4,56.4,50.7,98,93,86,30.27,30.09,4,1,7,0.00
2013-9-24,59.2,57.2,55.2,57.7,56.3,54.5,98,97,95,30.09,29.95,7,2,10,0.00
2013-9-25,55.2,52.5,46.6,54.7,51.4,44.8,98,96,90,30.03,29.89,10,5,14,0.04
2013-9-26,56.7,49.9,42.1,50.2,46.4,41.3,98,88,73,30.09,30.03,6,2,10,0.00
2013-9-27,58.3,54.3,50.9,56.6,53.1,49.4,98,96,93,30.03,29.92,3,1,5,0.08
2013-9-28,63.3,55.4,47.8,58.2,52.3,47.3,98,90,73,29.92,29.83,7,2,10,0.00
2013-9-29,60.1,52.8,46.9,54.0,47.8,44.6,96,84,65,29.92,29.86,11,6,16,0.00
2013-9-30,59.0,53.2,49.3,50.2,47.5,45.5,93,81,66,29.89,29.80,12,7,18,0.00